sensor_id;sensor_type;location;lat;lon;timestamp;P1;durP1;ratioP1;P2;durP2;ratioP2
17251;SDS011;8742;51.716;8.790;2023-05-10T00:00:09;25.93;;;17.37;;
17251;SDS011;8742;51.716;8.790;2023-05-10T00:02:38;27.33;;;18.30;;
17251;SDS011;8742;51.716;8.790;2023-05-10T00:05:05;29.80;;;18.17;;
17251;SDS011;8742;51.716;8.790;2023-05-10T00:07:33;27.37;;;18.03;;
17251;SDS011;8742;51.716;8.790;2023-05-10T00:10:00;26.00;;;18.17;;
17251;SDS011;8742;51.716;8.790;2023-05-10T00:12:26;31.80;;;19.63;;
17251;SDS011;8742;51.716;8.790;2023-05-10T00:14:53;30.27;;;19.40;;
17251;SDS011;8742;51.716;8.790;2023-05-10T00:17:20;29.20;;;17.80;;
17251;SDS011;8742;51.716;8.790;2023-05-10T00:19:48;30.17;;;19.40;;
17251;SDS011;8742;51.716;8.790;2023-05-10T00:22:15;27.73;;;18.10;;
17251;SDS011;8742;51.716;8.790;2023-05-10T00:24:42;33.00;;;19.17;;
17251;SDS011;8742;51.716;8.790;2023-05-10T00:27:09;30.30;;;19.47;;
17251;SDS011;8742;51.716;8.790;2023-05-10T00:29:36;28.17;;;18.67;;
17251;SDS011;8742;51.716;8.790;2023-05-10T00:32:02;29.00;;;19.17;;
17251;SDS011;8742;51.716;8.790;2023-05-10T00:34:30;26.20;;;16.73;;
17251;SDS011;8742;51.716;8.790;2023-05-10T00:36:58;24.10;;;15.63;;
17251;SDS011;8742;51.716;8.790;2023-05-10T00:39:25;24.90;;;16.13;;
17251;SDS011;8742;51.716;8.790;2023-05-10T00:41:53;23.27;;;15.57;;
17251;SDS011;8742;51.716;8.790;2023-05-10T00:44:20;23.70;;;14.60;;
17251;SDS011;8742;51.716;8.790;2023-05-10T00:46:47;23.07;;;14.37;;
17251;SDS011;8742;51.716;8.790;2023-05-10T00:49:14;24.40;;;13.90;;
17251;SDS011;8742;51.716;8.790;2023-05-10T00:51:42;20.57;;;13.33;;
17251;SDS011;8742;51.716;8.790;2023-05-10T00:54:11;21.50;;;13.20;;
17251;SDS011;8742;51.716;8.790;2023-05-10T00:56:40;23.63;;;13.30;;
17251;SDS011;8742;51.716;8.790;2023-05-10T00:59:09;19.17;;;13.37;;
17251;SDS011;8742;51.716;8.790;2023-05-10T01:01:36;19.70;;;12.23;;
17251;SDS011;8742;51.716;8.790;2023-05-10T01:04:04;19.43;;;12.40;;
17251;SDS011;8742;51.716;8.790;2023-05-10T01:06:30;20.00;;;12.23;;
17251;SDS011;8742;51.716;8.790;2023-05-10T01:08:57;21.77;;;12.50;;
17251;SDS011;8742;51.716;8.790;2023-05-10T01:11:25;17.53;;;11.93;;
17251;SDS011;8742;51.716;8.790;2023-05-10T01:13:54;19.43;;;11.97;;
17251;SDS011;8742;51.716;8.790;2023-05-10T01:16:22;17.37;;;10.77;;
17251;SDS011;8742;51.716;8.790;2023-05-10T01:18:50;13.20;;;9.43;;
17251;SDS011;8742;51.716;8.790;2023-05-10T01:21:19;14.37;;;9.77;;
17251;SDS011;8742;51.716;8.790;2023-05-10T01:32:57;10.30;;;7.67;;
17251;SDS011;8742;51.716;8.790;2023-05-10T01:35:30;16.90;;;8.03;;
17251;SDS011;8742;51.716;8.790;2023-05-10T01:38:04;13.23;;;8.93;;
17251;SDS011;8742;51.716;8.790;2023-05-10T01:40:39;12.63;;;8.90;;
17251;SDS011;8742;51.716;8.790;2023-05-10T01:43:14;11.53;;;8.50;;
17251;SDS011;8742;51.716;8.790;2023-05-10T01:45:50;12.47;;;7.73;;
17251;SDS011;8742;51.716;8.790;2023-05-10T01:48:36;10.37;;;7.67;;
17251;SDS011;8742;51.716;8.790;2023-05-10T01:51:06;11.90;;;7.60;;
17251;SDS011;8742;51.716;8.790;2023-05-10T01:53:34;10.90;;;7.27;;
17251;SDS011;8742;51.716;8.790;2023-05-10T01:56:05;9.67;;;7.23;;
17251;SDS011;8742;51.716;8.790;2023-05-10T01:58:33;8.23;;;5.47;;
17251;SDS011;8742;51.716;8.790;2023-05-10T02:01:03;4.13;;;3.73;;
17251;SDS011;8742;51.716;8.790;2023-05-10T02:03:30;4.93;;;3.83;;
17251;SDS011;8742;51.716;8.790;2023-05-10T02:06:01;3.80;;;3.40;;
17251;SDS011;8742;51.716;8.790;2023-05-10T02:08:29;4.97;;;4.00;;
17251;SDS011;8742;51.716;8.790;2023-05-10T02:10:56;6.67;;;4.10;;
17251;SDS011;8742;51.716;8.790;2023-05-10T02:13:25;5.90;;;4.63;;
17251;SDS011;8742;51.716;8.790;2023-05-10T02:15:53;5.93;;;4.90;;
17251;SDS011;8742;51.716;8.790;2023-05-10T02:18:22;9.90;;;5.97;;
17251;SDS011;8742;51.716;8.790;2023-05-10T02:20:50;9.93;;;6.37;;
17251;SDS011;8742;51.716;8.790;2023-05-10T02:23:21;10.80;;;7.00;;
17251;SDS011;8742;51.716;8.790;2023-05-10T02:25:49;11.50;;;7.03;;
17251;SDS011;8742;51.716;8.790;2023-05-10T02:28:17;12.37;;;7.33;;
17251;SDS011;8742;51.716;8.790;2023-05-10T02:30:45;10.57;;;6.73;;
17251;SDS011;8742;51.716;8.790;2023-05-10T02:33:13;10.23;;;6.63;;
17251;SDS011;8742;51.716;8.790;2023-05-10T02:35:40;10.57;;;6.80;;
17251;SDS011;8742;51.716;8.790;2023-05-10T02:38:08;9.87;;;6.97;;
17251;SDS011;8742;51.716;8.790;2023-05-10T02:40:39;9.77;;;7.10;;
17251;SDS011;8742;51.716;8.790;2023-05-10T02:43:09;9.73;;;6.80;;
17251;SDS011;8742;51.716;8.790;2023-05-10T02:45:40;13.07;;;8.00;;
17251;SDS011;8742;51.716;8.790;2023-05-10T02:48:09;12.57;;;8.10;;
17251;SDS011;8742;51.716;8.790;2023-05-10T02:50:36;10.60;;;7.43;;
17251;SDS011;8742;51.716;8.790;2023-05-10T02:53:06;11.43;;;8.03;;
17251;SDS011;8742;51.716;8.790;2023-05-10T02:55:42;16.67;;;7.97;;
17251;SDS011;8742;51.716;8.790;2023-05-10T02:58:15;9.67;;;6.90;;
17251;SDS011;8742;51.716;8.790;2023-05-10T03:00:44;11.57;;;7.20;;
17251;SDS011;8742;51.716;8.790;2023-05-10T03:03:11;10.40;;;7.33;;
17251;SDS011;8742;51.716;8.790;2023-05-10T03:05:38;10.83;;;7.33;;
17251;SDS011;8742;51.716;8.790;2023-05-10T03:08:05;11.93;;;9.03;;
17251;SDS011;8742;51.716;8.790;2023-05-10T03:10:32;10.67;;;8.17;;
17251;SDS011;8742;51.716;8.790;2023-05-10T03:13:07;14.97;;;8.60;;
17251;SDS011;8742;51.716;8.790;2023-05-10T03:15:42;14.50;;;8.80;;
17251;SDS011;8742;51.716;8.790;2023-05-10T03:18:15;16.40;;;9.07;;
17251;SDS011;8742;51.716;8.790;2023-05-10T03:20:47;12.17;;;8.73;;
17251;SDS011;8742;51.716;8.790;2023-05-10T03:23:20;12.47;;;8.80;;
17251;SDS011;8742;51.716;8.790;2023-05-10T03:25:50;14.27;;;8.87;;
17251;SDS011;8742;51.716;8.790;2023-05-10T03:28:18;10.67;;;8.27;;
17251;SDS011;8742;51.716;8.790;2023-05-10T03:30:46;10.80;;;8.53;;
17251;SDS011;8742;51.716;8.790;2023-05-10T03:33:13;9.67;;;8.37;;
17251;SDS011;8742;51.716;8.790;2023-05-10T03:35:40;13.57;;;7.97;;
17251;SDS011;8742;51.716;8.790;2023-05-10T03:38:09;11.40;;;8.03;;
17251;SDS011;8742;51.716;8.790;2023-05-10T03:40:35;10.77;;;7.50;;
17251;SDS011;8742;51.716;8.790;2023-05-10T03:43:03;8.90;;;7.03;;
17251;SDS011;8742;51.716;8.790;2023-05-10T03:45:31;9.70;;;6.53;;
17251;SDS011;8742;51.716;8.790;2023-05-10T03:47:58;10.10;;;6.60;;
17251;SDS011;8742;51.716;8.790;2023-05-10T03:50:25;6.80;;;5.83;;
17251;SDS011;8742;51.716;8.790;2023-05-10T03:52:52;10.70;;;6.03;;
17251;SDS011;8742;51.716;8.790;2023-05-10T03:55:19;6.80;;;5.27;;
17251;SDS011;8742;51.716;8.790;2023-05-10T03:57:46;8.80;;;6.23;;
17251;SDS011;8742;51.716;8.790;2023-05-10T04:00:14;6.67;;;5.07;;
17251;SDS011;8742;51.716;8.790;2023-05-10T04:02:43;6.80;;;5.50;;
17251;SDS011;8742;51.716;8.790;2023-05-10T04:05:10;6.43;;;5.10;;
17251;SDS011;8742;51.716;8.790;2023-05-10T04:07:37;14.90;;;6.57;;
17251;SDS011;8742;51.716;8.790;2023-05-10T04:10:04;8.03;;;6.10;;
17251;SDS011;8742;51.716;8.790;2023-05-10T04:12:32;7.77;;;6.30;;
17251;SDS011;8742;51.716;8.790;2023-05-10T04:14:58;9.37;;;6.73;;
17251;SDS011;8742;51.716;8.790;2023-05-10T04:17:26;8.70;;;6.00;;
17251;SDS011;8742;51.716;8.790;2023-05-10T04:19:54;8.53;;;6.30;;
17251;SDS011;8742;51.716;8.790;2023-05-10T04:22:22;9.83;;;6.80;;
17251;SDS011;8742;51.716;8.790;2023-05-10T04:24:49;9.30;;;7.20;;
17251;SDS011;8742;51.716;8.790;2023-05-10T04:27:16;11.67;;;8.00;;
17251;SDS011;8742;51.716;8.790;2023-05-10T04:29:42;8.10;;;6.83;;
17251;SDS011;8742;51.716;8.790;2023-05-10T04:32:09;8.20;;;6.47;;
17251;SDS011;8742;51.716;8.790;2023-05-10T04:34:36;10.03;;;6.87;;
17251;SDS011;8742;51.716;8.790;2023-05-10T04:37:04;8.57;;;6.70;;
17251;SDS011;8742;51.716;8.790;2023-05-10T04:39:32;8.97;;;6.57;;
17251;SDS011;8742;51.716;8.790;2023-05-10T04:42:00;9.43;;;7.17;;
17251;SDS011;8742;51.716;8.790;2023-05-10T04:44:27;11.00;;;7.20;;
17251;SDS011;8742;51.716;8.790;2023-05-10T04:46:54;11.10;;;7.53;;
17251;SDS011;8742;51.716;8.790;2023-05-10T04:49:21;9.13;;;6.47;;
17251;SDS011;8742;51.716;8.790;2023-05-10T04:51:48;13.50;;;7.00;;
17251;SDS011;8742;51.716;8.790;2023-05-10T04:54:16;10.23;;;6.33;;
17251;SDS011;8742;51.716;8.790;2023-05-10T04:56:43;4.53;;;4.13;;
17251;SDS011;8742;51.716;8.790;2023-05-10T04:59:10;5.67;;;3.90;;
17251;SDS011;8742;51.716;8.790;2023-05-10T05:01:37;3.83;;;3.43;;
17251;SDS011;8742;51.716;8.790;2023-05-10T05:04:04;3.80;;;3.37;;
17251;SDS011;8742;51.716;8.790;2023-05-10T05:06:31;4.37;;;3.27;;
17251;SDS011;8742;51.716;8.790;2023-05-10T05:08:58;7.03;;;3.20;;
17251;SDS011;8742;51.716;8.790;2023-05-10T05:11:26;3.47;;;2.50;;
17251;SDS011;8742;51.716;8.790;2023-05-10T05:13:53;3.10;;;2.80;;
17251;SDS011;8742;51.716;8.790;2023-05-10T05:16:20;4.13;;;2.50;;
17251;SDS011;8742;51.716;8.790;2023-05-10T05:18:47;3.50;;;2.57;;
17251;SDS011;8742;51.716;8.790;2023-05-10T05:21:14;3.20;;;2.60;;
17251;SDS011;8742;51.716;8.790;2023-05-10T05:23:42;3.50;;;2.40;;
17251;SDS011;8742;51.716;8.790;2023-05-10T05:26:08;4.07;;;3.07;;
17251;SDS011;8742;51.716;8.790;2023-05-10T05:28:37;4.17;;;3.30;;
17251;SDS011;8742;51.716;8.790;2023-05-10T05:31:04;4.20;;;3.53;;
17251;SDS011;8742;51.716;8.790;2023-05-10T05:33:32;5.00;;;3.80;;
17251;SDS011;8742;51.716;8.790;2023-05-10T05:35:59;4.33;;;3.27;;
17251;SDS011;8742;51.716;8.790;2023-05-10T05:38:26;7.27;;;3.83;;
17251;SDS011;8742;51.716;8.790;2023-05-10T05:40:53;4.03;;;3.40;;
17251;SDS011;8742;51.716;8.790;2023-05-10T05:43:20;4.27;;;3.53;;
17251;SDS011;8742;51.716;8.790;2023-05-10T05:45:48;5.20;;;3.70;;
17251;SDS011;8742;51.716;8.790;2023-05-10T05:48:15;3.80;;;3.33;;
17251;SDS011;8742;51.716;8.790;2023-05-10T05:50:42;4.87;;;3.50;;
17251;SDS011;8742;51.716;8.790;2023-05-10T05:53:09;3.93;;;3.50;;
17251;SDS011;8742;51.716;8.790;2023-05-10T05:55:36;6.93;;;4.27;;
17251;SDS011;8742;51.716;8.790;2023-05-10T05:58:03;5.50;;;4.23;;
17251;SDS011;8742;51.716;8.790;2023-05-10T06:00:29;5.03;;;4.00;;
17251;SDS011;8742;51.716;8.790;2023-05-10T06:02:58;6.83;;;5.30;;
17251;SDS011;8742;51.716;8.790;2023-05-10T06:05:24;6.10;;;4.80;;
17251;SDS011;8742;51.716;8.790;2023-05-10T06:07:51;6.83;;;4.60;;
17251;SDS011;8742;51.716;8.790;2023-05-10T06:10:18;9.27;;;4.73;;
17251;SDS011;8742;51.716;8.790;2023-05-10T06:12:45;11.80;;;3.93;;
17251;SDS011;8742;51.716;8.790;2023-05-10T06:15:12;4.47;;;3.53;;
17251;SDS011;8742;51.716;8.790;2023-05-10T06:17:39;4.63;;;3.40;;
17251;SDS011;8742;51.716;8.790;2023-05-10T06:20:08;3.63;;;3.23;;
17251;SDS011;8742;51.716;8.790;2023-05-10T06:22:35;5.13;;;4.23;;
17251;SDS011;8742;51.716;8.790;2023-05-10T06:25:02;5.33;;;3.20;;
17251;SDS011;8742;51.716;8.790;2023-05-10T06:27:29;5.40;;;3.30;;
17251;SDS011;8742;51.716;8.790;2023-05-10T06:29:56;4.27;;;2.87;;
17251;SDS011;8742;51.716;8.790;2023-05-10T06:32:23;7.60;;;3.20;;
17251;SDS011;8742;51.716;8.790;2023-05-10T06:34:49;4.10;;;2.87;;
17251;SDS011;8742;51.716;8.790;2023-05-10T06:37:18;3.67;;;2.47;;
17251;SDS011;8742;51.716;8.790;2023-05-10T06:39:45;3.20;;;2.33;;
17251;SDS011;8742;51.716;8.790;2023-05-10T06:42:12;4.60;;;2.33;;
17251;SDS011;8742;51.716;8.790;2023-05-10T06:44:39;4.80;;;3.17;;
17251;SDS011;8742;51.716;8.790;2023-05-10T06:47:05;3.97;;;2.93;;
17251;SDS011;8742;51.716;8.790;2023-05-10T06:49:32;3.93;;;3.13;;
17251;SDS011;8742;51.716;8.790;2023-05-10T06:51:59;5.37;;;3.20;;
17251;SDS011;8742;51.716;8.790;2023-05-10T06:54:27;5.07;;;3.37;;
17251;SDS011;8742;51.716;8.790;2023-05-10T06:56:54;5.80;;;3.60;;
17251;SDS011;8742;51.716;8.790;2023-05-10T06:59:21;3.60;;;3.30;;
17251;SDS011;8742;51.716;8.790;2023-05-10T07:01:48;7.10;;;3.83;;
17251;SDS011;8742;51.716;8.790;2023-05-10T07:04:14;3.87;;;3.20;;
17251;SDS011;8742;51.716;8.790;2023-05-10T07:06:42;3.83;;;3.30;;
17251;SDS011;8742;51.716;8.790;2023-05-10T07:09:11;4.23;;;3.17;;
17251;SDS011;8742;51.716;8.790;2023-05-10T07:11:39;4.43;;;3.30;;
17251;SDS011;8742;51.716;8.790;2023-05-10T07:14:06;4.77;;;2.87;;
17251;SDS011;8742;51.716;8.790;2023-05-10T07:16:33;4.13;;;3.73;;
17251;SDS011;8742;51.716;8.790;2023-05-10T07:19:00;4.73;;;3.70;;
17251;SDS011;8742;51.716;8.790;2023-05-10T07:21:27;7.00;;;3.90;;
17251;SDS011;8742;51.716;8.790;2023-05-10T07:23:54;5.23;;;3.60;;
17251;SDS011;8742;51.716;8.790;2023-05-10T07:26:21;8.00;;;4.00;;
17251;SDS011;8742;51.716;8.790;2023-05-10T07:28:49;5.37;;;3.83;;
17251;SDS011;8742;51.716;8.790;2023-05-10T07:31:16;4.03;;;3.60;;
17251;SDS011;8742;51.716;8.790;2023-05-10T07:33:42;6.77;;;3.70;;
17251;SDS011;8742;51.716;8.790;2023-05-10T07:36:09;4.03;;;3.30;;
17251;SDS011;8742;51.716;8.790;2023-05-10T07:38:36;3.90;;;3.27;;
17251;SDS011;8742;51.716;8.790;2023-05-10T07:41:03;5.40;;;3.03;;
17251;SDS011;8742;51.716;8.790;2023-05-10T07:43:30;5.67;;;3.33;;
17251;SDS011;8742;51.716;8.790;2023-05-10T07:45:58;3.67;;;2.87;;
17251;SDS011;8742;51.716;8.790;2023-05-10T07:48:25;5.80;;;3.10;;
17251;SDS011;8742;51.716;8.790;2023-05-10T07:50:52;5.97;;;3.03;;
17251;SDS011;8742;51.716;8.790;2023-05-10T07:53:19;4.47;;;3.37;;
17251;SDS011;8742;51.716;8.790;2023-05-10T07:55:49;5.53;;;3.47;;
17251;SDS011;8742;51.716;8.790;2023-05-10T07:58:16;7.10;;;3.90;;
17251;SDS011;8742;51.716;8.790;2023-05-10T08:00:43;8.93;;;4.83;;
17251;SDS011;8742;51.716;8.790;2023-05-10T08:03:11;5.23;;;4.43;;
17251;SDS011;8742;51.716;8.790;2023-05-10T08:05:38;8.77;;;5.33;;
17251;SDS011;8742;51.716;8.790;2023-05-10T08:08:05;7.60;;;4.67;;
17251;SDS011;8742;51.716;8.790;2023-05-10T08:10:32;7.10;;;4.80;;
17251;SDS011;8742;51.716;8.790;2023-05-10T08:12:59;7.03;;;4.60;;
17251;SDS011;8742;51.716;8.790;2023-05-10T08:15:26;6.90;;;5.07;;
17251;SDS011;8742;51.716;8.790;2023-05-10T08:17:52;7.70;;;5.67;;
17251;SDS011;8742;51.716;8.790;2023-05-10T08:20:21;11.17;;;5.47;;
17251;SDS011;8742;51.716;8.790;2023-05-10T08:22:48;6.97;;;5.13;;
17251;SDS011;8742;51.716;8.790;2023-05-10T08:25:15;6.20;;;5.10;;
17251;SDS011;8742;51.716;8.790;2023-05-10T08:27:42;9.60;;;5.20;;
17251;SDS011;8742;51.716;8.790;2023-05-10T08:30:09;9.33;;;5.80;;
17251;SDS011;8742;51.716;8.790;2023-05-10T08:32:37;8.17;;;6.10;;
17251;SDS011;8742;51.716;8.790;2023-05-10T08:35:04;11.47;;;6.53;;
17251;SDS011;8742;51.716;8.790;2023-05-10T08:37:32;17.13;;;6.57;;
17251;SDS011;8742;51.716;8.790;2023-05-10T08:39:59;11.20;;;7.13;;
17251;SDS011;8742;51.716;8.790;2023-05-10T08:42:27;17.27;;;10.63;;
17251;SDS011;8742;51.716;8.790;2023-05-10T08:44:57;18.00;;;11.53;;
17251;SDS011;8742;51.716;8.790;2023-05-10T08:47:25;22.03;;;12.13;;
17251;SDS011;8742;51.716;8.790;2023-05-10T08:49:52;20.87;;;13.40;;
17251;SDS011;8742;51.716;8.790;2023-05-10T08:52:21;25.27;;;15.63;;
17251;SDS011;8742;51.716;8.790;2023-05-10T08:54:51;27.37;;;16.10;;
17251;SDS011;8742;51.716;8.790;2023-05-10T08:57:18;26.80;;;16.23;;
17251;SDS011;8742;51.716;8.790;2023-05-10T08:59:45;26.83;;;17.30;;
17251;SDS011;8742;51.716;8.790;2023-05-10T09:02:13;27.30;;;17.63;;
17251;SDS011;8742;51.716;8.790;2023-05-10T09:04:40;29.73;;;18.20;;
17251;SDS011;8742;51.716;8.790;2023-05-10T09:07:07;32.43;;;19.23;;
17251;SDS011;8742;51.716;8.790;2023-05-10T09:09:34;31.50;;;18.00;;
17251;SDS011;8742;51.716;8.790;2023-05-10T09:12:04;33.17;;;18.20;;
17251;SDS011;8742;51.716;8.790;2023-05-10T09:14:32;29.33;;;19.37;;
17251;SDS011;8742;51.716;8.790;2023-05-10T09:17:01;33.43;;;18.97;;
17251;SDS011;8742;51.716;8.790;2023-05-10T09:19:28;27.80;;;18.60;;
17251;SDS011;8742;51.716;8.790;2023-05-10T09:21:55;27.10;;;18.43;;
17251;SDS011;8742;51.716;8.790;2023-05-10T09:24:24;27.77;;;18.00;;
17251;SDS011;8742;51.716;8.790;2023-05-10T09:26:52;26.57;;;17.07;;
17251;SDS011;8742;51.716;8.790;2023-05-10T09:29:20;30.80;;;20.20;;
17251;SDS011;8742;51.716;8.790;2023-05-10T09:31:48;29.70;;;18.07;;
17251;SDS011;8742;51.716;8.790;2023-05-10T09:34:20;29.27;;;18.53;;
17251;SDS011;8742;51.716;8.790;2023-05-10T09:36:52;27.43;;;16.23;;
17251;SDS011;8742;51.716;8.790;2023-05-10T09:39:20;28.97;;;17.03;;
17251;SDS011;8742;51.716;8.790;2023-05-10T09:41:47;30.20;;;17.27;;
17251;SDS011;8742;51.716;8.790;2023-05-10T09:44:16;30.33;;;16.73;;
17251;SDS011;8742;51.716;8.790;2023-05-10T09:46:49;30.83;;;18.70;;
17251;SDS011;8742;51.716;8.790;2023-05-10T09:49:17;28.03;;;16.70;;
17251;SDS011;8742;51.716;8.790;2023-05-10T09:51:45;28.27;;;17.77;;
17251;SDS011;8742;51.716;8.790;2023-05-10T09:54:12;24.17;;;15.70;;
17251;SDS011;8742;51.716;8.790;2023-05-10T09:56:40;29.90;;;18.43;;
17251;SDS011;8742;51.716;8.790;2023-05-10T09:59:11;28.67;;;16.03;;
17251;SDS011;8742;51.716;8.790;2023-05-10T10:01:38;25.63;;;17.30;;
17251;SDS011;8742;51.716;8.790;2023-05-10T10:04:08;25.30;;;17.67;;
17251;SDS011;8742;51.716;8.790;2023-05-10T10:06:36;28.20;;;17.03;;
17251;SDS011;8742;51.716;8.790;2023-05-10T10:09:03;25.57;;;16.40;;
17251;SDS011;8742;51.716;8.790;2023-05-10T10:11:31;25.37;;;17.67;;
17251;SDS011;8742;51.716;8.790;2023-05-10T10:13:58;24.90;;;17.43;;
17251;SDS011;8742;51.716;8.790;2023-05-10T10:16:25;26.27;;;17.33;;
17251;SDS011;8742;51.716;8.790;2023-05-10T10:18:53;27.63;;;17.77;;
17251;SDS011;8742;51.716;8.790;2023-05-10T10:21:21;22.83;;;17.00;;
17251;SDS011;8742;51.716;8.790;2023-05-10T10:23:49;23.90;;;16.67;;
17251;SDS011;8742;51.716;8.790;2023-05-10T10:26:18;27.03;;;17.30;;
17251;SDS011;8742;51.716;8.790;2023-05-10T10:28:47;29.97;;;17.53;;
17251;SDS011;8742;51.716;8.790;2023-05-10T10:31:20;22.63;;;16.43;;
17251;SDS011;8742;51.716;8.790;2023-05-10T10:33:58;26.87;;;16.70;;
17251;SDS011;8742;51.716;8.790;2023-05-10T10:36:29;23.53;;;15.80;;
17251;SDS011;8742;51.716;8.790;2023-05-10T10:38:58;23.10;;;15.90;;
17251;SDS011;8742;51.716;8.790;2023-05-10T10:41:29;23.63;;;15.60;;
17251;SDS011;8742;51.716;8.790;2023-05-10T10:47:02;24.17;;;16.40;;
17251;SDS011;8742;51.716;8.790;2023-05-10T10:49:48;25.03;;;16.73;;
17251;SDS011;8742;51.716;8.790;2023-05-10T10:52:22;28.70;;;17.33;;
17251;SDS011;8742;51.716;8.790;2023-05-10T10:54:54;28.43;;;17.70;;
17251;SDS011;8742;51.716;8.790;2023-05-10T10:57:25;33.13;;;18.53;;
17251;SDS011;8742;51.716;8.790;2023-05-10T11:02:54;31.27;;;19.83;;
17251;SDS011;8742;51.716;8.790;2023-05-10T11:08:10;26.13;;;18.77;;
17251;SDS011;8742;51.716;8.790;2023-05-10T11:10:39;29.43;;;19.50;;
17251;SDS011;8742;51.716;8.790;2023-05-10T11:13:16;25.73;;;16.83;;
17251;SDS011;8742;51.716;8.790;2023-05-10T11:15:53;22.47;;;15.97;;
17251;SDS011;8742;51.716;8.790;2023-05-10T11:18:23;28.23;;;16.97;;
17251;SDS011;8742;51.716;8.790;2023-05-10T11:20:51;25.27;;;17.13;;
17251;SDS011;8742;51.716;8.790;2023-05-10T11:23:22;24.90;;;16.03;;
17251;SDS011;8742;51.716;8.790;2023-05-10T11:25:49;18.50;;;14.63;;
17251;SDS011;8742;51.716;8.790;2023-05-10T11:28:16;21.20;;;14.45;;
17251;SDS011;8742;51.716;8.790;2023-05-10T11:30:45;23.15;;;15.45;;
17251;SDS011;8742;51.716;8.790;2023-05-10T11:33:15;21.13;;;13.82;;
17251;SDS011;8742;51.716;8.790;2023-05-10T11:35:43;21.70;;;13.80;;
17251;SDS011;8742;51.716;8.790;2023-05-10T11:38:10;22.83;;;14.10;;
17251;SDS011;8742;51.716;8.790;2023-05-10T11:40:40;21.40;;;14.63;;
17251;SDS011;8742;51.716;8.790;2023-05-10T11:43:08;22.47;;;15.50;;
17251;SDS011;8742;51.716;8.790;2023-05-10T11:45:36;25.40;;;16.98;;
17251;SDS011;8742;51.716;8.790;2023-05-10T11:48:03;28.80;;;17.63;;
17251;SDS011;8742;51.716;8.790;2023-05-10T11:50:30;26.43;;;16.30;;
17251;SDS011;8742;51.716;8.790;2023-05-10T11:52:57;26.47;;;16.23;;
17251;SDS011;8742;51.716;8.790;2023-05-10T11:55:24;28.10;;;17.30;;
17251;SDS011;8742;51.716;8.790;2023-05-10T11:57:53;25.67;;;17.80;;
17251;SDS011;8742;51.716;8.790;2023-05-10T12:00:20;27.90;;;16.97;;
17251;SDS011;8742;51.716;8.790;2023-05-10T12:02:47;24.27;;;16.50;;
17251;SDS011;8742;51.716;8.790;2023-05-10T12:05:14;30.80;;;17.37;;
17251;SDS011;8742;51.716;8.790;2023-05-10T12:07:42;24.67;;;15.57;;
17251;SDS011;8742;51.716;8.790;2023-05-10T12:10:09;22.77;;;15.53;;
17251;SDS011;8742;51.716;8.790;2023-05-10T12:12:39;18.73;;;13.38;;
17251;SDS011;8742;51.716;8.790;2023-05-10T12:15:12;23.05;;;13.10;;
17251;SDS011;8742;51.716;8.790;2023-05-10T12:17:44;18.65;;;12.70;;
17251;SDS011;8742;51.716;8.790;2023-05-10T12:20:17;18.02;;;11.95;;
17251;SDS011;8742;51.716;8.790;2023-05-10T12:22:55;16.95;;;10.95;;
17251;SDS011;8742;51.716;8.790;2023-05-10T12:25:24;13.20;;;10.47;;
17251;SDS011;8742;51.716;8.790;2023-05-10T12:27:56;21.60;;;12.63;;
17251;SDS011;8742;51.716;8.790;2023-05-10T12:30:27;15.90;;;11.70;;
17251;SDS011;8742;51.716;8.790;2023-05-10T12:32:59;15.87;;;11.20;;
17251;SDS011;8742;51.716;8.790;2023-05-10T12:35:29;17.77;;;11.07;;
17251;SDS011;8742;51.716;8.790;2023-05-10T12:37:56;14.20;;;10.50;;
17251;SDS011;8742;51.716;8.790;2023-05-10T12:40:23;10.57;;;7.73;;
17251;SDS011;8742;51.716;8.790;2023-05-10T12:42:51;11.50;;;8.60;;
17251;SDS011;8742;51.716;8.790;2023-05-10T12:45:18;13.73;;;8.00;;
17251;SDS011;8742;51.716;8.790;2023-05-10T12:47:46;8.93;;;5.23;;
17251;SDS011;8742;51.716;8.790;2023-05-10T12:50:13;7.17;;;4.97;;
17251;SDS011;8742;51.716;8.790;2023-05-10T12:52:40;8.70;;;4.30;;
17251;SDS011;8742;51.716;8.790;2023-05-10T12:55:07;4.37;;;3.87;;
17251;SDS011;8742;51.716;8.790;2023-05-10T12:57:34;4.17;;;3.47;;
17251;SDS011;8742;51.716;8.790;2023-05-10T13:00:01;4.53;;;3.40;;
17251;SDS011;8742;51.716;8.790;2023-05-10T13:02:29;6.67;;;3.00;;
17251;SDS011;8742;51.716;8.790;2023-05-10T13:04:58;3.63;;;3.03;;
17251;SDS011;8742;51.716;8.790;2023-05-10T13:07:25;3.53;;;3.20;;
17251;SDS011;8742;51.716;8.790;2023-05-10T13:09:51;3.67;;;2.90;;
17251;SDS011;8742;51.716;8.790;2023-05-10T13:12:18;3.77;;;3.30;;
17251;SDS011;8742;51.716;8.790;2023-05-10T13:14:45;7.57;;;3.80;;
17251;SDS011;8742;51.716;8.790;2023-05-10T13:17:12;5.37;;;3.50;;
17251;SDS011;8742;51.716;8.790;2023-05-10T13:19:39;4.40;;;3.50;;
17251;SDS011;8742;51.716;8.790;2023-05-10T13:22:07;4.37;;;3.73;;
17251;SDS011;8742;51.716;8.790;2023-05-10T13:24:34;6.20;;;3.40;;
17251;SDS011;8742;51.716;8.790;2023-05-10T13:27:00;3.67;;;2.97;;
17251;SDS011;8742;51.716;8.790;2023-05-10T13:29:27;4.90;;;3.63;;
17251;SDS011;8742;51.716;8.790;2023-05-10T13:31:54;3.77;;;3.33;;
17251;SDS011;8742;51.716;8.790;2023-05-10T13:34:21;4.10;;;3.10;;
17251;SDS011;8742;51.716;8.790;2023-05-10T13:36:49;7.13;;;3.20;;
17251;SDS011;8742;51.716;8.790;2023-05-10T13:39:17;5.83;;;3.37;;
17251;SDS011;8742;51.716;8.790;2023-05-10T13:41:44;4.43;;;3.73;;
17251;SDS011;8742;51.716;8.790;2023-05-10T13:44:11;4.50;;;3.57;;
17251;SDS011;8742;51.716;8.790;2023-05-10T13:46:39;4.63;;;3.40;;
17251;SDS011;8742;51.716;8.790;2023-05-10T13:49:06;4.63;;;3.60;;
17251;SDS011;8742;51.716;8.790;2023-05-10T13:51:33;4.43;;;3.67;;
17251;SDS011;8742;51.716;8.790;2023-05-10T13:54:00;5.07;;;3.60;;
17251;SDS011;8742;51.716;8.790;2023-05-10T13:56:28;7.15;;;3.55;;
17251;SDS011;8742;51.716;8.790;2023-05-10T13:58:55;5.07;;;3.70;;
17251;SDS011;8742;51.716;8.790;2023-05-10T14:01:23;6.63;;;4.40;;
17251;SDS011;8742;51.716;8.790;2023-05-10T14:03:50;8.07;;;4.95;;
17251;SDS011;8742;51.716;8.790;2023-05-10T14:06:17;9.07;;;4.23;;
17251;SDS011;8742;51.716;8.790;2023-05-10T14:08:44;9.57;;;5.17;;
17251;SDS011;8742;51.716;8.790;2023-05-10T14:11:10;10.47;;;6.73;;
17251;SDS011;8742;51.716;8.790;2023-05-10T14:13:39;13.50;;;8.67;;
17251;SDS011;8742;51.716;8.790;2023-05-10T14:16:06;14.03;;;9.43;;
17251;SDS011;8742;51.716;8.790;2023-05-10T14:18:33;15.23;;;9.47;;
17251;SDS011;8742;51.716;8.790;2023-05-10T14:21:01;11.47;;;7.27;;
17251;SDS011;8742;51.716;8.790;2023-05-10T14:23:28;9.80;;;6.57;;
17251;SDS011;8742;51.716;8.790;2023-05-10T14:25:55;16.63;;;7.13;;
17251;SDS011;8742;51.716;8.790;2023-05-10T14:28:22;15.83;;;6.67;;
17251;SDS011;8742;51.716;8.790;2023-05-10T14:30:51;12.83;;;8.77;;
17251;SDS011;8742;51.716;8.790;2023-05-10T14:33:18;15.10;;;8.57;;
17251;SDS011;8742;51.716;8.790;2023-05-10T14:35:45;12.43;;;8.17;;
17251;SDS011;8742;51.716;8.790;2023-05-10T14:38:12;16.37;;;8.00;;
17251;SDS011;8742;51.716;8.790;2023-05-10T14:40:39;16.10;;;9.37;;
17251;SDS011;8742;51.716;8.790;2023-05-10T14:43:06;17.03;;;8.67;;
17251;SDS011;8742;51.716;8.790;2023-05-10T14:45:33;19.87;;;9.67;;
17251;SDS011;8742;51.716;8.790;2023-05-10T14:48:01;19.57;;;9.47;;
17251;SDS011;8742;51.716;8.790;2023-05-10T14:50:29;17.10;;;9.50;;
17251;SDS011;8742;51.716;8.790;2023-05-10T14:52:56;19.93;;;10.23;;
17251;SDS011;8742;51.716;8.790;2023-05-10T14:55:24;17.53;;;9.43;;
17251;SDS011;8742;51.716;8.790;2023-05-10T14:57:50;17.23;;;10.07;;
17251;SDS011;8742;51.716;8.790;2023-05-10T15:00:18;15.03;;;9.50;;
17251;SDS011;8742;51.716;8.790;2023-05-10T15:02:45;15.83;;;10.17;;
17251;SDS011;8742;51.716;8.790;2023-05-10T15:05:14;22.10;;;9.87;;
17251;SDS011;8742;51.716;8.790;2023-05-10T15:07:41;16.87;;;9.57;;
17251;SDS011;8742;51.716;8.790;2023-05-10T15:10:09;14.17;;;9.13;;